sensor_id;sensor_type;location;lat;lon;timestamp;P1;durP1;ratioP1;P2;durP2;ratioP2
64208;SDS011;50527;52.414;13.226;2022-12-29T00:01:14;0.60;;;0.30;;
64208;SDS011;50527;52.414;13.226;2022-12-29T00:03:40;1.30;;;0.40;;
64208;SDS011;50527;52.414;13.226;2022-12-29T00:06:05;0.82;;;0.40;;
64208;SDS011;50527;52.414;13.226;2022-12-29T00:08:31;3.83;;;0.40;;
64208;SDS011;50527;52.414;13.226;2022-12-29T00:11:08;1.05;;;0.28;;
64208;SDS011;50527;52.414;13.226;2022-12-29T00:13:36;1.02;;;0.32;;
64208;SDS011;50527;52.414;13.226;2022-12-29T00:16:20;2.22;;;0.30;;
64208;SDS011;50527;52.414;13.226;2022-12-29T00:18:46;1.77;;;0.40;;
64208;SDS011;50527;52.414;13.226;2022-12-29T00:21:15;1.85;;;0.40;;
64208;SDS011;50527;52.414;13.226;2022-12-29T00:24:01;3.20;;;0.43;;
64208;SDS011;50527;52.414;13.226;2022-12-29T00:26:47;1.45;;;0.40;;
64208;SDS011;50527;52.414;13.226;2022-12-29T00:29:41;0.90;;;0.30;;
64208;SDS011;50527;52.414;13.226;2022-12-29T00:32:25;0.32;;;0.20;;
64208;SDS011;50527;52.414;13.226;2022-12-29T00:35:10;2.00;;;0.30;;
64208;SDS011;50527;52.414;13.226;2022-12-29T00:37:41;0.82;;;0.40;;
64208;SDS011;50527;52.414;13.226;2022-12-29T00:40:27;2.28;;;0.47;;
64208;SDS011;50527;52.414;13.226;2022-12-29T00:43:11;0.95;;;0.40;;
64208;SDS011;50527;52.414;13.226;2022-12-29T00:45:55;1.95;;;0.20;;
64208;SDS011;50527;52.414;13.226;2022-12-29T00:48:20;1.40;;;0.40;;
64208;SDS011;50527;52.414;13.226;2022-12-29T00:51:05;1.20;;;0.30;;
64208;SDS011;50527;52.414;13.226;2022-12-29T00:53:31;0.70;;;0.20;;
64208;SDS011;50527;52.414;13.226;2022-12-29T00:55:56;2.35;;;0.40;;
64208;SDS011;50527;52.414;13.226;2022-12-29T00:58:22;3.22;;;0.43;;
64208;SDS011;50527;52.414;13.226;2022-12-29T01:00:47;6.03;;;0.30;;
64208;SDS011;50527;52.414;13.226;2022-12-29T01:03:13;1.15;;;0.30;;
64208;SDS011;50527;52.414;13.226;2022-12-29T01:05:38;2.47;;;0.25;;
64208;SDS011;50527;52.414;13.226;2022-12-29T01:08:04;1.98;;;0.40;;
64208;SDS011;50527;52.414;13.226;2022-12-29T01:10:29;0.90;;;0.35;;
64208;SDS011;50527;52.414;13.226;2022-12-29T01:12:55;0.73;;;0.30;;
64208;SDS011;50527;52.414;13.226;2022-12-29T01:15:20;0.88;;;0.30;;
64208;SDS011;50527;52.414;13.226;2022-12-29T01:17:46;2.08;;;0.32;;
64208;SDS011;50527;52.414;13.226;2022-12-29T01:20:11;0.82;;;0.38;;
64208;SDS011;50527;52.414;13.226;2022-12-29T01:22:37;1.40;;;0.40;;
64208;SDS011;50527;52.414;13.226;2022-12-29T01:25:03;2.88;;;0.22;;
64208;SDS011;50527;52.414;13.226;2022-12-29T01:27:29;0.45;;;0.30;;
64208;SDS011;50527;52.414;13.226;2022-12-29T01:29:55;1.38;;;0.45;;
64208;SDS011;50527;52.414;13.226;2022-12-29T01:32:20;1.25;;;0.40;;
64208;SDS011;50527;52.414;13.226;2022-12-29T01:34:46;2.13;;;0.40;;
64208;SDS011;50527;52.414;13.226;2022-12-29T01:37:11;0.85;;;0.30;;
64208;SDS011;50527;52.414;13.226;2022-12-29T01:39:37;0.70;;;0.35;;
64208;SDS011;50527;52.414;13.226;2022-12-29T01:42:02;1.73;;;0.47;;
64208;SDS011;50527;52.414;13.226;2022-12-29T01:47:38;0.80;;;0.30;;
64208;SDS011;50527;52.414;13.226;2022-12-29T01:50:22;1.70;;;0.50;;
64208;SDS011;50527;52.414;13.226;2022-12-29T01:55:33;0.80;;;0.20;;
64208;SDS011;50527;52.414;13.226;2022-12-29T01:58:03;2.03;;;0.30;;
64208;SDS011;50527;52.414;13.226;2022-12-29T02:00:31;0.57;;;0.30;;
64208;SDS011;50527;52.414;13.226;2022-12-29T02:02:57;0.50;;;0.25;;
64208;SDS011;50527;52.414;13.226;2022-12-29T02:05:30;0.43;;;0.22;;
64208;SDS011;50527;52.414;13.226;2022-12-29T02:08:01;0.50;;;0.20;;
64208;SDS011;50527;52.414;13.226;2022-12-29T02:10:27;0.70;;;0.20;;
64208;SDS011;50527;52.414;13.226;2022-12-29T02:12:55;0.85;;;0.32;;
64208;SDS011;50527;52.414;13.226;2022-12-29T02:15:22;2.47;;;0.38;;
64208;SDS011;50527;52.414;13.226;2022-12-29T02:18:11;1.20;;;0.30;;
64208;SDS011;50527;52.414;13.226;2022-12-29T02:21:01;0.55;;;0.10;;
64208;SDS011;50527;52.414;13.226;2022-12-29T02:23:57;0.70;;;0.20;;
64208;SDS011;50527;52.414;13.226;2022-12-29T02:29:21;0.70;;;0.38;;
64208;SDS011;50527;52.414;13.226;2022-12-29T02:32:24;0.85;;;0.30;;
64208;SDS011;50527;52.414;13.226;2022-12-29T02:35:25;1.52;;;0.40;;
64208;SDS011;50527;52.414;13.226;2022-12-29T02:38:20;1.15;;;0.30;;
64208;SDS011;50527;52.414;13.226;2022-12-29T02:40:55;0.50;;;0.25;;
64208;SDS011;50527;52.414;13.226;2022-12-29T02:43:47;1.13;;;0.40;;
64208;SDS011;50527;52.414;13.226;2022-12-29T02:49:06;3.00;;;0.32;;
64208;SDS011;50527;52.414;13.226;2022-12-29T02:51:47;0.90;;;0.30;;
64208;SDS011;50527;52.414;13.226;2022-12-29T02:54:25;1.75;;;0.28;;
64208;SDS011;50527;52.414;13.226;2022-12-29T02:57:14;1.35;;;0.40;;
64208;SDS011;50527;52.414;13.226;2022-12-29T02:59:46;0.22;;;0.10;;
64208;SDS011;50527;52.414;13.226;2022-12-29T03:02:28;0.73;;;0.20;;
64208;SDS011;50527;52.414;13.226;2022-12-29T03:05:22;1.83;;;0.10;;
64208;SDS011;50527;52.414;13.226;2022-12-29T03:08:06;0.95;;;0.30;;
64208;SDS011;50527;52.414;13.226;2022-12-29T03:10:41;0.50;;;0.20;;
64208;SDS011;50527;52.414;13.226;2022-12-29T03:24:25;0.52;;;0.20;;
64208;SDS011;50527;52.414;13.226;2022-12-29T03:26:54;2.13;;;0.38;;
64208;SDS011;50527;52.414;13.226;2022-12-29T03:29:22;1.10;;;0.45;;
64208;SDS011;50527;52.414;13.226;2022-12-29T03:31:49;1.08;;;0.32;;
64208;SDS011;50527;52.414;13.226;2022-12-29T03:34:17;0.60;;;0.22;;
64208;SDS011;50527;52.414;13.226;2022-12-29T03:36:58;1.17;;;0.30;;
64208;SDS011;50527;52.414;13.226;2022-12-29T03:39:30;0.52;;;0.15;;
64208;SDS011;50527;52.414;13.226;2022-12-29T03:41:58;0.63;;;0.30;;
64208;SDS011;50527;52.414;13.226;2022-12-29T03:44:46;1.45;;;0.20;;
64208;SDS011;50527;52.414;13.226;2022-12-29T03:47:12;4.07;;;0.30;;
64208;SDS011;50527;52.414;13.226;2022-12-29T03:49:39;3.13;;;0.28;;
64208;SDS011;50527;52.414;13.226;2022-12-29T03:52:05;1.27;;;0.22;;
64208;SDS011;50527;52.414;13.226;2022-12-29T03:54:31;0.50;;;0.20;;
64208;SDS011;50527;52.414;13.226;2022-12-29T03:56:57;0.60;;;0.13;;
64208;SDS011;50527;52.414;13.226;2022-12-29T03:59:22;0.50;;;0.28;;
64208;SDS011;50527;52.414;13.226;2022-12-29T04:01:48;0.50;;;0.20;;
64208;SDS011;50527;52.414;13.226;2022-12-29T04:04:13;0.70;;;0.20;;
64208;SDS011;50527;52.414;13.226;2022-12-29T04:06:39;0.73;;;0.20;;
64208;SDS011;50527;52.414;13.226;2022-12-29T04:09:05;0.70;;;0.20;;
64208;SDS011;50527;52.414;13.226;2022-12-29T04:11:31;1.25;;;0.32;;
64208;SDS011;50527;52.414;13.226;2022-12-29T04:13:56;0.40;;;0.17;;
64208;SDS011;50527;52.414;13.226;2022-12-29T04:16:22;0.88;;;0.28;;
64208;SDS011;50527;52.414;13.226;2022-12-29T04:18:47;0.50;;;0.30;;
64208;SDS011;50527;52.414;13.226;2022-12-29T04:21:12;0.98;;;0.30;;
64208;SDS011;50527;52.414;13.226;2022-12-29T04:23:38;1.23;;;0.30;;
64208;SDS011;50527;52.414;13.226;2022-12-29T04:26:04;0.75;;;0.10;;
64208;SDS011;50527;52.414;13.226;2022-12-29T04:28:32;0.98;;;0.20;;
64208;SDS011;50527;52.414;13.226;2022-12-29T04:30:57;1.50;;;0.30;;
64208;SDS011;50527;52.414;13.226;2022-12-29T04:33:23;1.15;;;0.30;;
64208;SDS011;50527;52.414;13.226;2022-12-29T04:35:49;1.73;;;0.20;;
64208;SDS011;50527;52.414;13.226;2022-12-29T04:38:15;1.20;;;0.47;;
64208;SDS011;50527;52.414;13.226;2022-12-29T04:40:41;0.85;;;0.20;;
64208;SDS011;50527;52.414;13.226;2022-12-29T04:43:07;1.10;;;0.22;;
64208;SDS011;50527;52.414;13.226;2022-12-29T04:45:33;1.85;;;0.20;;
64208;SDS011;50527;52.414;13.226;2022-12-29T04:47:59;0.98;;;0.30;;
64208;SDS011;50527;52.414;13.226;2022-12-29T04:50:24;2.30;;;0.20;;
64208;SDS011;50527;52.414;13.226;2022-12-29T04:52:50;3.13;;;0.40;;
64208;SDS011;50527;52.414;13.226;2022-12-29T04:55:15;2.58;;;0.43;;
64208;SDS011;50527;52.414;13.226;2022-12-29T04:57:41;0.80;;;0.20;;
64208;SDS011;50527;52.414;13.226;2022-12-29T05:00:06;0.88;;;0.25;;
64208;SDS011;50527;52.414;13.226;2022-12-29T05:02:34;0.82;;;0.20;;
64208;SDS011;50527;52.414;13.226;2022-12-29T05:05:00;0.45;;;0.28;;
64208;SDS011;50527;52.414;13.226;2022-12-29T05:07:25;0.55;;;0.20;;
64208;SDS011;50527;52.414;13.226;2022-12-29T05:09:51;3.40;;;0.30;;
64208;SDS011;50527;52.414;13.226;2022-12-29T05:12:16;0.40;;;0.20;;
64208;SDS011;50527;52.414;13.226;2022-12-29T05:14:42;1.17;;;0.32;;
64208;SDS011;50527;52.414;13.226;2022-12-29T05:17:07;0.40;;;0.28;;
64208;SDS011;50527;52.414;13.226;2022-12-29T05:19:33;0.63;;;0.20;;
64208;SDS011;50527;52.414;13.226;2022-12-29T05:21:58;2.13;;;0.40;;
64208;SDS011;50527;52.414;13.226;2022-12-29T05:24:24;0.73;;;0.30;;
64208;SDS011;50527;52.414;13.226;2022-12-29T05:26:49;3.33;;;0.50;;
64208;SDS011;50527;52.414;13.226;2022-12-29T05:29:14;0.93;;;0.20;;
64208;SDS011;50527;52.414;13.226;2022-12-29T05:31:40;0.20;;;0.20;;
64208;SDS011;50527;52.414;13.226;2022-12-29T05:34:05;1.67;;;0.30;;
64208;SDS011;50527;52.414;13.226;2022-12-29T05:36:31;0.80;;;0.20;;
64208;SDS011;50527;52.414;13.226;2022-12-29T05:38:56;2.22;;;0.50;;
64208;SDS011;50527;52.414;13.226;2022-12-29T05:41:22;0.80;;;0.30;;
64208;SDS011;50527;52.414;13.226;2022-12-29T05:43:47;1.40;;;0.50;;
64208;SDS011;50527;52.414;13.226;2022-12-29T05:46:13;0.30;;;0.20;;
64208;SDS011;50527;52.414;13.226;2022-12-29T05:48:38;0.40;;;0.20;;
64208;SDS011;50527;52.414;13.226;2022-12-29T05:51:04;1.15;;;0.40;;
64208;SDS011;50527;52.414;13.226;2022-12-29T05:53:30;0.60;;;0.30;;
64208;SDS011;50527;52.414;13.226;2022-12-29T05:55:55;1.70;;;0.40;;
64208;SDS011;50527;52.414;13.226;2022-12-29T05:58:21;0.50;;;0.20;;
64208;SDS011;50527;52.414;13.226;2022-12-29T06:00:46;0.75;;;0.32;;
64208;SDS011;50527;52.414;13.226;2022-12-29T06:03:12;0.30;;;0.10;;
64208;SDS011;50527;52.414;13.226;2022-12-29T06:05:37;0.25;;;0.10;;
64208;SDS011;50527;52.414;13.226;2022-12-29T06:08:03;0.17;;;0.10;;
64208;SDS011;50527;52.414;13.226;2022-12-29T06:10:28;1.08;;;0.22;;
64208;SDS011;50527;52.414;13.226;2022-12-29T06:12:54;0.57;;;0.20;;
64208;SDS011;50527;52.414;13.226;2022-12-29T06:15:19;0.50;;;0.10;;
64208;SDS011;50527;52.414;13.226;2022-12-29T06:17:45;2.10;;;0.30;;
64208;SDS011;50527;52.414;13.226;2022-12-29T06:20:11;0.65;;;0.20;;
64208;SDS011;50527;52.414;13.226;2022-12-29T06:22:36;0.22;;;0.20;;
64208;SDS011;50527;52.414;13.226;2022-12-29T06:25:02;1.00;;;0.13;;
64208;SDS011;50527;52.414;13.226;2022-12-29T06:27:28;3.83;;;0.35;;
64208;SDS011;50527;52.414;13.226;2022-12-29T06:29:54;1.25;;;0.30;;
64208;SDS011;50527;52.414;13.226;2022-12-29T06:32:19;0.55;;;0.17;;
64208;SDS011;50527;52.414;13.226;2022-12-29T06:34:45;0.77;;;0.20;;
64208;SDS011;50527;52.414;13.226;2022-12-29T06:37:11;0.60;;;0.28;;
64208;SDS011;50527;52.414;13.226;2022-12-29T06:39:36;0.40;;;0.28;;
64208;SDS011;50527;52.414;13.226;2022-12-29T06:42:02;2.08;;;0.40;;
64208;SDS011;50527;52.414;13.226;2022-12-29T06:44:27;1.60;;;0.20;;
64208;SDS011;50527;52.414;13.226;2022-12-29T06:46:53;0.50;;;0.20;;
64208;SDS011;50527;52.414;13.226;2022-12-29T06:49:18;0.47;;;0.20;;
64208;SDS011;50527;52.414;13.226;2022-12-29T06:51:44;0.70;;;0.20;;
64208;SDS011;50527;52.414;13.226;2022-12-29T06:54:10;1.17;;;0.20;;
64208;SDS011;50527;52.414;13.226;2022-12-29T06:56:35;1.58;;;0.50;;
64208;SDS011;50527;52.414;13.226;2022-12-29T06:59:01;0.85;;;0.30;;
64208;SDS011;50527;52.414;13.226;2022-12-29T07:01:26;3.80;;;0.30;;
64208;SDS011;50527;52.414;13.226;2022-12-29T07:03:52;2.65;;;0.40;;
64208;SDS011;50527;52.414;13.226;2022-12-29T07:06:17;2.28;;;0.30;;
64208;SDS011;50527;52.414;13.226;2022-12-29T07:08:43;0.77;;;0.20;;
64208;SDS011;50527;52.414;13.226;2022-12-29T07:11:08;0.50;;;0.20;;
64208;SDS011;50527;52.414;13.226;2022-12-29T07:13:34;1.45;;;0.40;;
64208;SDS011;50527;52.414;13.226;2022-12-29T07:16:04;0.32;;;0.20;;
64208;SDS011;50527;52.414;13.226;2022-12-29T07:18:31;0.38;;;0.20;;
64208;SDS011;50527;52.414;13.226;2022-12-29T07:20:56;0.88;;;0.22;;
64208;SDS011;50527;52.414;13.226;2022-12-29T07:23:22;0.93;;;0.30;;
64208;SDS011;50527;52.414;13.226;2022-12-29T07:25:48;0.35;;;0.10;;
64208;SDS011;50527;52.414;13.226;2022-12-29T07:28:13;0.93;;;0.30;;
64208;SDS011;50527;52.414;13.226;2022-12-29T07:30:39;0.75;;;0.25;;
64208;SDS011;50527;52.414;13.226;2022-12-29T07:33:04;0.10;;;0.10;;
64208;SDS011;50527;52.414;13.226;2022-12-29T07:35:30;1.05;;;0.30;;
64208;SDS011;50527;52.414;13.226;2022-12-29T07:37:55;1.90;;;0.17;;
64208;SDS011;50527;52.414;13.226;2022-12-29T07:40:21;0.47;;;0.30;;
64208;SDS011;50527;52.414;13.226;2022-12-29T07:42:46;1.02;;;0.20;;
64208;SDS011;50527;52.414;13.226;2022-12-29T07:45:11;0.43;;;0.10;;
64208;SDS011;50527;52.414;13.226;2022-12-29T07:47:37;0.80;;;0.30;;
64208;SDS011;50527;52.414;13.226;2022-12-29T07:50:03;0.17;;;0.10;;
64208;SDS011;50527;52.414;13.226;2022-12-29T07:52:29;0.65;;;0.30;;
64208;SDS011;50527;52.414;13.226;2022-12-29T07:54:54;0.98;;;0.20;;
64208;SDS011;50527;52.414;13.226;2022-12-29T07:57:20;0.88;;;0.10;;
64208;SDS011;50527;52.414;13.226;2022-12-29T07:59:45;0.82;;;0.20;;
64208;SDS011;50527;52.414;13.226;2022-12-29T08:02:11;0.85;;;0.30;;
64208;SDS011;50527;52.414;13.226;2022-12-29T08:04:36;0.75;;;0.10;;
64208;SDS011;50527;52.414;13.226;2022-12-29T08:07:02;0.55;;;0.20;;
64208;SDS011;50527;52.414;13.226;2022-12-29T08:09:27;0.65;;;0.20;;
64208;SDS011;50527;52.414;13.226;2022-12-29T08:11:53;0.73;;;0.17;;
64208;SDS011;50527;52.414;13.226;2022-12-29T08:14:19;0.40;;;0.17;;
64208;SDS011;50527;52.414;13.226;2022-12-29T08:16:45;0.40;;;0.17;;
64208;SDS011;50527;52.414;13.226;2022-12-29T08:19:11;0.40;;;0.20;;
64208;SDS011;50527;52.414;13.226;2022-12-29T08:21:37;1.05;;;0.22;;
64208;SDS011;50527;52.414;13.226;2022-12-29T08:24:03;0.20;;;0.10;;
64208;SDS011;50527;52.414;13.226;2022-12-29T08:26:29;0.40;;;0.25;;
64208;SDS011;50527;52.414;13.226;2022-12-29T08:28:55;0.55;;;0.10;;
64208;SDS011;50527;52.414;13.226;2022-12-29T08:31:22;3.15;;;0.20;;
64208;SDS011;50527;52.414;13.226;2022-12-29T08:33:48;0.50;;;0.20;;
64208;SDS011;50527;52.414;13.226;2022-12-29T08:36:14;2.22;;;0.10;;
64208;SDS011;50527;52.414;13.226;2022-12-29T08:38:40;0.25;;;0.10;;
64208;SDS011;50527;52.414;13.226;2022-12-29T08:41:06;1.40;;;0.30;;
64208;SDS011;50527;52.414;13.226;2022-12-29T08:43:31;0.82;;;0.20;;
64208;SDS011;50527;52.414;13.226;2022-12-29T08:45:57;4.18;;;0.40;;
64208;SDS011;50527;52.414;13.226;2022-12-29T08:48:23;3.30;;;0.30;;
64208;SDS011;50527;52.414;13.226;2022-12-29T08:50:49;4.03;;;0.30;;
64208;SDS011;50527;52.414;13.226;2022-12-29T08:53:15;3.10;;;0.38;;
64208;SDS011;50527;52.414;13.226;2022-12-29T08:55:42;0.90;;;0.30;;
64208;SDS011;50527;52.414;13.226;2022-12-29T08:58:10;1.80;;;0.30;;
64208;SDS011;50527;52.414;13.226;2022-12-29T09:00:39;0.10;;;0.10;;
64208;SDS011;50527;52.414;13.226;2022-12-29T09:03:05;0.80;;;0.20;;
64208;SDS011;50527;52.414;13.226;2022-12-29T09:05:31;1.95;;;0.28;;
64208;SDS011;50527;52.414;13.226;2022-12-29T09:07:56;0.73;;;0.28;;
64208;SDS011;50527;52.414;13.226;2022-12-29T09:10:22;0.70;;;0.25;;
64208;SDS011;50527;52.414;13.226;2022-12-29T09:12:47;1.38;;;0.38;;
64208;SDS011;50527;52.414;13.226;2022-12-29T09:15:13;1.02;;;0.28;;
64208;SDS011;50527;52.414;13.226;2022-12-29T09:17:38;0.80;;;0.20;;
64208;SDS011;50527;52.414;13.226;2022-12-29T09:20:11;2.00;;;0.17;;
64208;SDS011;50527;52.414;13.226;2022-12-29T09:22:38;0.52;;;0.10;;
64208;SDS011;50527;52.414;13.226;2022-12-29T09:25:04;0.25;;;0.20;;
64208;SDS011;50527;52.414;13.226;2022-12-29T09:27:30;3.50;;;0.38;;
64208;SDS011;50527;52.414;13.226;2022-12-29T09:29:55;1.48;;;0.22;;
64208;SDS011;50527;52.414;13.226;2022-12-29T09:32:21;0.25;;;0.20;;
64208;SDS011;50527;52.414;13.226;2022-12-29T09:34:46;1.20;;;0.20;;
64208;SDS011;50527;52.414;13.226;2022-12-29T09:37:11;0.70;;;0.25;;
64208;SDS011;50527;52.414;13.226;2022-12-29T09:39:37;0.88;;;0.28;;
64208;SDS011;50527;52.414;13.226;2022-12-29T09:42:06;0.10;;;0.10;;
64208;SDS011;50527;52.414;13.226;2022-12-29T09:47:20;0.57;;;0.22;;
64208;SDS011;50527;52.414;13.226;2022-12-29T09:49:49;0.90;;;0.30;;
64208;SDS011;50527;52.414;13.226;2022-12-29T09:52:23;1.00;;;0.20;;
64208;SDS011;50527;52.414;13.226;2022-12-29T09:54:58;0.40;;;0.20;;
64208;SDS011;50527;52.414;13.226;2022-12-29T09:57:31;0.10;;;0.10;;
64208;SDS011;50527;52.414;13.226;2022-12-29T10:00:11;2.08;;;0.30;;
64208;SDS011;50527;52.414;13.226;2022-12-29T10:02:40;0.57;;;0.20;;
64208;SDS011;50527;52.414;13.226;2022-12-29T10:05:27;0.43;;;0.15;;
64208;SDS011;50527;52.414;13.226;2022-12-29T10:08:25;0.75;;;0.20;;
64208;SDS011;50527;52.414;13.226;2022-12-29T10:16:48;0.75;;;0.20;;
64208;SDS011;50527;52.414;13.226;2022-12-29T10:22:28;0.20;;;0.10;;
64208;SDS011;50527;52.414;13.226;2022-12-29T10:25:18;0.40;;;0.20;;
64208;SDS011;50527;52.414;13.226;2022-12-29T10:27:47;0.40;;;0.17;;
64208;SDS011;50527;52.414;13.226;2022-12-29T10:30:13;0.63;;;0.20;;
64208;SDS011;50527;52.414;13.226;2022-12-29T10:32:47;0.43;;;0.20;;
64208;SDS011;50527;52.414;13.226;2022-12-29T10:35:26;0.60;;;0.20;;
64208;SDS011;50527;52.414;13.226;2022-12-29T10:43:51;0.20;;;0.17;;
64208;SDS011;50527;52.414;13.226;2022-12-29T10:46:29;0.43;;;0.22;;
64208;SDS011;50527;52.414;13.226;2022-12-29T10:48:58;0.10;;;0.10;;
64208;SDS011;50527;52.414;13.226;2022-12-29T10:51:25;0.45;;;0.20;;
64208;SDS011;50527;52.414;13.226;2022-12-29T10:54:04;0.55;;;0.10;;
64208;SDS011;50527;52.414;13.226;2022-12-29T10:56:47;2.33;;;0.20;;
64208;SDS011;50527;52.414;13.226;2022-12-29T10:59:22;0.10;;;0.03;;
64208;SDS011;50527;52.414;13.226;2022-12-29T11:01:56;0.90;;;0.20;;
64208;SDS011;50527;52.414;13.226;2022-12-29T11:07:17;0.70;;;0.20;;
64208;SDS011;50527;52.414;13.226;2022-12-29T11:09:44;2.80;;;0.25;;
64208;SDS011;50527;52.414;13.226;2022-12-29T11:12:24;1.10;;;0.32;;
64208;SDS011;50527;52.414;13.226;2022-12-29T11:17:44;0.93;;;0.17;;
64208;SDS011;50527;52.414;13.226;2022-12-29T11:20:19;1.23;;;0.20;;
64208;SDS011;50527;52.414;13.226;2022-12-29T11:22:51;0.32;;;0.10;;
64208;SDS011;50527;52.414;13.226;2022-12-29T11:25:17;3.03;;;0.30;;
64208;SDS011;50527;52.414;13.226;2022-12-29T11:27:54;1.02;;;0.20;;
64208;SDS011;50527;52.414;13.226;2022-12-29T11:30:49;0.40;;;0.10;;
64208;SDS011;50527;52.414;13.226;2022-12-29T11:33:27;0.52;;;0.20;;
64208;SDS011;50527;52.414;13.226;2022-12-29T11:35:56;0.98;;;0.20;;
64208;SDS011;50527;52.414;13.226;2022-12-29T11:38:25;0.40;;;0.10;;
64208;SDS011;50527;52.414;13.226;2022-12-29T11:40:56;0.47;;;0.20;;
64208;SDS011;50527;52.414;13.226;2022-12-29T11:43:24;1.48;;;0.17;;
64208;SDS011;50527;52.414;13.226;2022-12-29T11:46:16;0.57;;;0.13;;
64208;SDS011;50527;52.414;13.226;2022-12-29T11:48:45;1.85;;;0.20;;
64208;SDS011;50527;52.414;13.226;2022-12-29T11:51:12;2.22;;;0.20;;
64208;SDS011;50527;52.414;13.226;2022-12-29T11:53:46;2.00;;;0.20;;
64208;SDS011;50527;52.414;13.226;2022-12-29T11:56:17;1.55;;;0.30;;
64208;SDS011;50527;52.414;13.226;2022-12-29T11:58:47;2.65;;;0.10;;
64208;SDS011;50527;52.414;13.226;2022-12-29T12:01:20;0.88;;;0.10;;
64208;SDS011;50527;52.414;13.226;2022-12-29T12:03:59;2.20;;;0.20;;
64208;SDS011;50527;52.414;13.226;2022-12-29T12:06:38;0.30;;;0.00;;
64208;SDS011;50527;52.414;13.226;2022-12-29T12:09:14;0.75;;;0.03;;
64208;SDS011;50527;52.414;13.226;2022-12-29T12:11:44;0.17;;;0.10;;
64208;SDS011;50527;52.414;13.226;2022-12-29T12:14:20;1.38;;;0.15;;
64208;SDS011;50527;52.414;13.226;2022-12-29T12:16:50;0.57;;;0.13;;
64208;SDS011;50527;52.414;13.226;2022-12-29T12:19:34;1.63;;;0.30;;
64208;SDS011;50527;52.414;13.226;2022-12-29T12:22:31;0.57;;;0.20;;
64208;SDS011;50527;52.414;13.226;2022-12-29T12:25:14;0.52;;;0.20;;
64208;SDS011;50527;52.414;13.226;2022-12-29T12:27:48;0.38;;;0.20;;
64208;SDS011;50527;52.414;13.226;2022-12-29T12:30:22;1.55;;;0.25;;
64208;SDS011;50527;52.414;13.226;2022-12-29T12:32:54;0.82;;;0.15;;
64208;SDS011;50527;52.414;13.226;2022-12-29T12:35:43;0.73;;;0.20;;
64208;SDS011;50527;52.414;13.226;2022-12-29T12:41:05;0.50;;;0.10;;
64208;SDS011;50527;52.414;13.226;2022-12-29T12:54:32;0.47;;;0.10;;
64208;SDS011;50527;52.414;13.226;2022-12-29T12:57:13;0.93;;;0.10;;
64208;SDS011;50527;52.414;13.226;2022-12-29T13:00:00;1.60;;;0.15;;
64208;SDS011;50527;52.414;13.226;2022-12-29T13:05:47;1.08;;;0.20;;
64208;SDS011;50527;52.414;13.226;2022-12-29T13:14:07;2.08;;;0.32;;
64208;SDS011;50527;52.414;13.226;2022-12-29T13:19:23;4.10;;;0.45;;
64208;SDS011;50527;52.414;13.226;2022-12-29T13:22:08;0.22;;;0.10;;
64208;SDS011;50527;52.414;13.226;2022-12-29T13:27:44;0.45;;;0.10;;
64208;SDS011;50527;52.414;13.226;2022-12-29T13:30:36;0.10;;;0.10;;
64208;SDS011;50527;52.414;13.226;2022-12-29T13:33:23;3.63;;;0.20;;
64208;SDS011;50527;52.414;13.226;2022-12-29T13:36:52;2.00;;;0.20;;
64208;SDS011;50527;52.414;13.226;2022-12-29T13:39:06;2.35;;;0.30;;
64208;SDS011;50527;52.414;13.226;2022-12-29T13:41:39;0.30;;;0.10;;
64208;SDS011;50527;52.414;13.226;2022-12-29T13:44:15;0.45;;;0.22;;
64208;SDS011;50527;52.414;13.226;2022-12-29T13:46:50;0.20;;;0.10;;
64208;SDS011;50527;52.414;13.226;2022-12-29T13:49:20;0.77;;;0.30;;
64208;SDS011;50527;52.414;13.226;2022-12-29T13:51:49;0.82;;;0.20;;
64208;SDS011;50527;52.414;13.226;2022-12-29T13:57:35;0.52;;;0.20;;
64208;SDS011;50527;52.414;13.226;2022-12-29T14:00:19;1.20;;;0.25;;
64208;SDS011;50527;52.414;13.226;2022-12-29T14:05:32;1.90;;;0.40;;
64208;SDS011;50527;52.414;13.226;2022-12-29T14:07:59;3.00;;;0.40;;
64208;SDS011;50527;52.414;13.226;2022-12-29T14:13:09;0.98;;;0.30;;
64208;SDS011;50527;52.414;13.226;2022-12-29T14:15:42;1.25;;;0.45;;
64208;SDS011;50527;52.414;13.226;2022-12-29T14:20:56;0.70;;;0.30;;
64208;SDS011;50527;52.414;13.226;2022-12-29T14:28:31;1.30;;;0.45;;
64208;SDS011;50527;52.414;13.226;2022-12-29T14:31:05;1.58;;;0.32;;
64208;SDS011;50527;52.414;13.226;2022-12-29T14:34:15;0.90;;;0.40;;
64208;SDS011;50527;52.414;13.226;2022-12-29T14:36:53;1.13;;;0.30;;
64208;SDS011;50527;52.414;13.226;2022-12-29T14:39:29;1.67;;;0.40;;
64208;SDS011;50527;52.414;13.226;2022-12-29T14:42:11;3.95;;;0.40;;
64208;SDS011;50527;52.414;13.226;2022-12-29T14:44:48;0.73;;;0.30;;
64208;SDS011;50527;52.414;13.226;2022-12-29T14:47:33;0.65;;;0.40;;
64208;SDS011;50527;52.414;13.226;2022-12-29T14:52:46;2.25;;;0.40;;
64208;SDS011;50527;52.414;13.226;2022-12-29T14:57:49;3.47;;;0.65;;
64208;SDS011;50527;52.414;13.226;2022-12-29T15:00:18;2.15;;;0.30;;
64208;SDS011;50527;52.414;13.226;2022-12-29T15:03:06;1.48;;;0.50;;
64208;SDS011;50527;52.414;13.226;2022-12-29T15:05:40;1.85;;;0.50;;
64208;SDS011;50527;52.414;13.226;2022-12-29T15:08:07;1.10;;;0.50;;
64208;SDS011;50527;52.414;13.226;2022-12-29T15:10:37;3.65;;;0.35;;
64208;SDS011;50527;52.414;13.226;2022-12-29T15:13:13;0.90;;;0.40;;
64208;SDS011;50527;52.414;13.226;2022-12-29T15:15:41;1.27;;;0.50;;
64208;SDS011;50527;52.414;13.226;2022-12-29T15:18:22;1.73;;;0.40;;
64208;SDS011;50527;52.414;13.226;2022-12-29T15:20:50;2.13;;;0.70;;
64208;SDS011;50527;52.414;13.226;2022-12-29T15:23:18;1.00;;;0.30;;
64208;SDS011;50527;52.414;13.226;2022-12-29T15:26:03;1.58;;;0.30;;
64208;SDS011;50527;52.414;13.226;2022-12-29T15:29:03;1.38;;;0.40;;
64208;SDS011;50527;52.414;13.226;2022-12-29T15:31:22;4.88;;;0.35;;
64208;SDS011;50527;52.414;13.226;2022-12-29T15:33:50;0.60;;;0.30;;
64208;SDS011;50527;52.414;13.226;2022-12-29T15:36:21;0.65;;;0.32;;
64208;SDS011;50527;52.414;13.226;2022-12-29T15:38:48;0.88;;;0.35;;
64208;SDS011;50527;52.414;13.226;2022-12-29T15:44:25;4.00;;;0.80;;
64208;SDS011;50527;52.414;13.226;2022-12-29T15:47:05;2.25;;;0.70;;
64208;SDS011;50527;52.414;13.226;2022-12-29T15:49:36;10.65;;;1.02;;
64208;SDS011;50527;52.414;13.226;2022-12-29T15:52:05;5.43;;;1.00;;
64208;SDS011;50527;52.414;13.226;2022-12-29T15:54:32;12.23;;;1.95;;
64208;SDS011;50527;52.414;13.226;2022-12-29T15:56:58;8.77;;;1.67;;
64208;SDS011;50527;52.414;13.226;2022-12-29T15:59:28;15.57;;;2.55;;
64208;SDS011;50527;52.414;13.226;2022-12-29T16:01:56;7.85;;;1.77;;
64208;SDS011;50527;52.414;13.226;2022-12-29T16:04:23;6.13;;;1.42;;
64208;SDS011;50527;52.414;13.226;2022-12-29T16:07:02;25.02;;;4.47;;
64208;SDS011;50527;52.414;13.226;2022-12-29T16:09:31;20.10;;;4.35;;
64208;SDS011;50527;52.414;13.226;2022-12-29T16:12:00;21.83;;;3.90;;
64208;SDS011;50527;52.414;13.226;2022-12-29T16:14:30;15.45;;;3.15;;
64208;SDS011;50527;52.414;13.226;2022-12-29T16:17:00;12.45;;;2.72;;
64208;SDS011;50527;52.414;13.226;2022-12-29T16:19:29;9.48;;;2.20;;
64208;SDS011;50527;52.414;13.226;2022-12-29T16:22:00;10.85;;;2.05;;
64208;SDS011;50527;52.414;13.226;2022-12-29T16:24:29;7.05;;;1.42;;
64208;SDS011;50527;52.414;13.226;2022-12-29T16:26:59;3.20;;;1.00;;
64208;SDS011;50527;52.414;13.226;2022-12-29T16:29:32;2.55;;;0.77;;
64208;SDS011;50527;52.414;13.226;2022-12-29T16:31:59;3.95;;;0.55;;
64208;SDS011;50527;52.414;13.226;2022-12-29T16:34:35;0.98;;;0.40;;